Time;durP1;ratioP1;P1;durP2;ratioP2;P2;SDS_P1;SDS_P2;PMS_P1;PMS_P2;Temp;Humidity;BMP_temperature;BMP_pressure;BME280_temperature;BME280_humidity;BME280_pressure;Samples;Min_cycle;Max_cycle;Signal;HPM_P1;HPM_P2
2021/12/07 00:02:20;;;;;;;3.73;1.93;;;;;;;10.71;75.48;93370.03;5090549;28;20649;-80
2021/12/07 00:04:47;;;;;;;2.50;2.00;;;;;;;10.70;75.77;93376.88;5090549;28;20196;-79
2021/12/07 00:07:14;;;;;;;2.67;2.47;;;;;;;10.67;75.79;93376.44;5090174;28;20225;-76
2021/12/07 00:09:44;;;;;;;3.30;2.40;;;;;;;10.65;75.72;93374.03;5090589;28;20242;-75
2021/12/07 00:12:12;;;;;;;2.40;2.20;;;;;;;10.53;75.76;93354.94;5089261;28;20202;-76
2021/12/07 00:14:41;;;;;;;2.70;2.50;;;;;;;10.60;75.78;93368.66;5089759;28;20684;-73
2021/12/07 00:17:09;;;;;;;3.23;2.80;;;;;;;10.57;75.65;93365.63;5089920;28;20205;-75
2021/12/07 00:19:36;;;;;;;2.77;2.57;;;;;;;10.28;75.62;93323.69;5090092;28;20209;-76
2021/12/07 00:22:07;;;;;;;2.63;2.30;;;;;;;10.53;75.61;93370.28;5090640;28;20186;-78
2021/12/07 00:24:34;;;;;;;2.50;2.30;;;;;;;10.51;75.70;93362.00;5089812;28;20221;-74
2021/12/07 00:27:00;;;;;;;2.43;2.23;;;;;;;10.50;75.50;93362.97;5089887;28;20217;-74
2021/12/07 00:29:30;;;;;;;2.57;2.37;;;;;;;10.46;75.63;93359.97;5090259;28;20216;-80
2021/12/07 00:32:16;;;;;;;2.30;2.10;;;;;;;10.46;75.37;93370.19;5089973;28;20186;-79
2021/12/07 00:34:57;;;;;;;2.30;2.10;;;;;;;10.44;75.64;93367.00;5090575;28;20196;-81
2021/12/07 00:37:26;;;;;;;2.10;2.00;;;;;;;10.45;75.69;93375.47;5087988;28;20189;-76
2021/12/07 00:39:53;;;;;;;1.80;1.70;;;;;;;10.44;75.78;93376.41;5086794;28;20236;-79
2021/12/07 00:42:20;;;;;;;2.20;2.00;;;;;;;10.43;75.95;93378.19;5087354;28;20190;-76
2021/12/07 00:44:47;;;;;;;1.90;1.80;;;;;;;10.43;75.86;93380.72;5089932;28;20193;-80
2021/12/07 00:47:16;;;;;;;4.47;2.00;;;;;;;10.42;76.13;93374.03;5090179;28;20213;-77
2021/12/07 00:49:44;;;;;;;2.57;2.07;;;;;;;10.41;76.07;93380.13;5089893;28;20225;-81
2021/12/07 00:52:12;;;;;;;3.17;2.00;;;;;;;10.39;76.20;93371.81;5086803;28;20186;-75
2021/12/07 00:54:39;;;;;;;3.23;1.77;;;;;;;10.39;76.01;93378.69;5089591;28;20636;-78
2021/12/07 00:57:06;;;;;;;1.90;1.70;;;;;;;10.20;75.91;93351.78;5089389;28;20193;-77
2021/12/07 00:59:33;;;;;;;1.90;1.80;;;;;;;10.37;75.86;93380.63;5089793;28;20583;-79
2021/12/07 01:02:01;;;;;;;1.63;1.53;;;;;;;10.35;75.80;93378.22;5087115;28;20208;-76
2021/12/07 01:04:31;;;;;;;2.30;2.10;;;;;;;10.34;75.96;93371.53;5089551;28;20274;-79
2021/12/07 01:07:06;;;;;;;1.70;1.60;;;;;;;10.34;76.06;93374.09;5089645;28;20214;-84
2021/12/07 01:09:41;;;;;;;3.10;1.97;;;;;;;10.33;76.26;93369.94;5089529;28;20300;-76
2021/12/07 01:26:21;;;;;;;1.70;1.60;;;;;;;10.27;76.43;93362.94;4929349;29;20666;-80
2021/12/07 01:28:48;;;;;;;1.93;1.80;;;;;;;10.27;76.94;93355.28;4928852;29;20746;-75
2021/12/07 01:31:20;;;;;;;1.80;1.70;;;;;;;10.27;77.06;93358.63;4929289;29;20210;-79
2021/12/07 01:34:11;;;;;;;2.07;1.80;;;;;;;10.28;77.12;93352.56;4928810;29;20613;-76
2021/12/07 01:37:05;;;;;;;1.93;1.83;;;;;;;10.27;77.13;93358.63;4929143;29;20206;-76
2021/12/07 01:39:55;;;;;;;1.80;1.67;;;;;;;10.26;77.21;93349.38;4928908;29;20199;-78
2021/12/07 01:49:39;;;;;;;2.20;2.00;;;;;;;10.22;77.42;93326.84;4910509;29;20786;-76
2021/12/07 01:51:08;;;;;;;2.10;1.90;;;;;;;10.17;77.35;93316.34;4909500;29;20206;-75
2021/12/07 02:01:53;;;;;;;2.83;1.90;;;;;;;10.31;77.31;93328.44;4966786;28;20189;-76
2021/12/07 02:04:20;;;;;;;4.30;2.10;;;;;;;10.32;77.50;93324.09;5002340;28;20339;-78
2021/12/07 02:06:47;;;;;;;2.53;2.10;;;;;;;10.30;77.01;93307.19;5008617;28;20228;-75
2021/12/07 02:09:15;;;;;;;1.80;1.70;;;;;;;10.29;77.13;93308.16;5010057;28;20306;-74
2021/12/07 02:11:48;;;;;;;2.97;2.00;;;;;;;10.28;76.77;93303.25;5010595;28;20210;-74
2021/12/07 02:14:16;;;;;;;1.93;1.80;;;;;;;10.27;76.91;93322.06;5019081;28;20602;-73
2021/12/07 02:16:45;;;;;;;1.80;1.70;;;;;;;10.25;76.75;93329.13;5024858;28;20228;-75
2021/12/07 02:19:12;;;;;;;1.80;1.70;;;;;;;10.23;76.71;93321.59;5061110;28;20221;-75
2021/12/07 02:21:40;;;;;;;2.40;2.20;;;;;;;10.20;76.49;93314.25;5092540;28;20669;-76
2021/12/07 02:24:07;;;;;;;2.93;2.30;;;;;;;10.21;76.51;93320.16;5092149;28;20218;-75
2021/12/07 02:26:34;;;;;;;2.00;1.87;;;;;;;10.19;76.72;93312.69;5092781;28;20205;-77
2021/12/07 02:29:01;;;;;;;1.93;1.80;;;;;;;10.14;76.49;93304.72;5092386;28;20201;-74
2021/12/07 02:31:28;;;;;;;1.77;1.57;;;;;;;10.14;76.23;93307.25;5092651;28;20190;-76
2021/12/07 02:33:56;;;;;;;2.33;1.80;;;;;;;10.13;76.37;93313.34;5092371;28;20571;-73
2021/12/07 02:36:23;;;;;;;1.70;1.60;;;;;;;10.05;76.12;93293.75;5093677;28;20201;-79
2021/12/07 02:38:51;;;;;;;2.87;1.53;;;;;;;10.10;75.92;93297.56;5093356;28;20193;-78
2021/12/07 02:41:18;;;;;;;2.27;1.87;;;;;;;10.07;76.00;93296.16;5092821;28;20193;-78
2021/12/07 02:43:46;;;;;;;1.87;1.77;;;;;;;9.80;76.04;93256.53;5092192;28;20194;-77
2021/12/07 02:46:13;;;;;;;2.03;1.60;;;;;;;10.04;75.88;93302.38;5091709;28;20201;-77
2021/12/07 02:48:40;;;;;;;1.53;1.50;;;;;;;10.02;75.98;93304.31;5092193;28;20556;-75
2021/12/07 02:51:07;;;;;;;1.70;1.60;;;;;;;10.02;76.31;93313.75;5091781;28;20194;-79
2021/12/07 02:53:36;;;;;;;1.67;1.57;;;;;;;10.00;75.85;93313.88;5092473;28;20209;-80
2021/12/07 02:56:06;;;;;;;1.87;1.77;;;;;;;9.81;75.76;93286.25;5092002;28;20189;-82
2021/12/07 02:58:34;;;;;;;2.83;1.60;;;;;;;9.97;75.68;93314.25;5091760;28;20201;-80
2021/12/07 03:01:08;;;;;;;1.70;1.60;;;;;;;9.95;75.71;93313.59;5091570;28;20189;-83
2021/12/07 03:03:42;;;;;;;1.93;1.70;;;;;;;9.86;75.78;93295.94;5091843;28;20186;-81
2021/12/07 03:06:17;;;;;;;1.90;1.80;;;;;;;9.89;75.52;93314.28;5090753;28;20695;-79
2021/12/07 03:28:08;;;;;;;1.80;1.70;;;;;;;9.65;74.55;93299.06;5090959;28;20793;-76
2021/12/07 03:30:35;;;;;;;2.00;1.90;;;;;;;9.61;74.53;93298.59;5091009;28;20185;-81
2021/12/07 03:33:02;;;;;;;1.70;1.60;;;;;;;9.54;74.38;93293.38;5090627;28;20192;-77
2021/12/07 03:35:30;;;;;;;1.70;1.60;;;;;;;9.55;74.29;93292.41;5093169;28;20194;-78
2021/12/07 03:37:58;;;;;;;1.70;1.60;;;;;;;9.54;74.55;93290.00;5090915;28;20194;-75
2021/12/07 03:40:26;;;;;;;1.87;1.77;;;;;;;9.51;74.18;93290.38;5091672;28;20189;-78
2021/12/07 03:42:53;;;;;;;1.77;1.67;;;;;;;9.49;74.18;93284.63;5090754;28;20200;-76
2021/12/07 03:45:21;;;;;;;1.60;1.50;;;;;;;9.45;74.16;93284.16;5091018;28;20194;-80
2021/12/07 03:47:48;;;;;;;1.53;1.50;;;;;;;9.43;74.09;93292.94;5090622;28;20602;-75
2021/12/07 03:50:15;;;;;;;1.60;1.50;;;;;;;9.36;73.91;93285.16;5091269;28;20518;-77
2021/12/07 03:52:42;;;;;;;1.60;1.50;;;;;;;9.32;73.90;93278.78;5090653;28;20209;-77
2021/12/07 03:55:10;;;;;;;2.23;1.63;;;;;;;9.33;73.67;93290.59;5088322;28;20284;-77
2021/12/07 03:57:36;;;;;;;2.00;1.80;;;;;;;9.25;74.08;93282.97;5091059;28;21822;-74
2021/12/07 04:00:07;;;;;;;1.80;1.70;;;;;;;9.29;74.17;93294.44;5090062;28;20681;-73
2021/12/07 04:02:39;;;;;;;1.70;1.60;;;;;;;9.28;73.72;93290.28;5088688;28;20186;-77
2021/12/07 04:05:11;;;;;;;3.03;1.80;;;;;;;9.17;73.84;93277.88;5090468;28;20228;-75
2021/12/07 04:07:38;;;;;;;1.60;1.50;;;;;;;9.24;73.64;93300.03;5090229;28;20838;-76
2021/12/07 04:10:07;;;;;;;1.97;1.70;;;;;;;9.22;73.41;93293.47;5090264;28;20181;-74
2021/12/07 04:12:34;;;;;;;1.67;1.57;;;;;;;9.19;73.80;93294.59;5090409;28;20286;-76
2021/12/07 04:15:01;;;;;;;1.60;1.50;;;;;;;9.05;73.46;93278.22;5089845;28;20210;-74
2021/12/07 04:17:28;;;;;;;1.80;1.70;;;;;;;9.18;73.67;93302.41;5090585;28;20181;-75
2021/12/07 04:19:56;;;;;;;1.47;1.40;;;;;;;9.16;73.60;93296.69;5089704;28;20186;-74
2021/12/07 04:22:23;;;;;;;2.53;1.87;;;;;;;9.11;73.44;93302.28;5090708;28;20193;-75
2021/12/07 04:24:50;;;;;;;1.40;1.33;;;;;;;9.12;73.46;93295.44;5089727;28;20685;-73
2021/12/07 04:27:17;;;;;;;1.50;1.40;;;;;;;9.10;73.46;93299.88;5090374;28;20210;-75
2021/12/07 04:29:44;;;;;;;1.60;1.50;;;;;;;9.07;73.01;93297.66;5089587;28;20182;-73
2021/12/07 04:32:13;;;;;;;1.50;1.40;;;;;;;9.04;73.23;93299.59;5090068;28;20566;-74
2021/12/07 04:34:40;;;;;;;1.30;1.30;;;;;;;9.03;73.31;93299.75;5089748;28;20255;-75
2021/12/07 04:37:08;;;;;;;1.67;1.57;;;;;;;9.02;73.03;93300.69;5089911;28;20718;-74
2021/12/07 04:39:35;;;;;;;1.37;1.27;;;;;;;8.95;72.87;93289.56;5090132;28;20193;-75
2021/12/07 04:42:02;;;;;;;1.40;1.40;;;;;;;8.93;72.87;93288.94;5090327;28;20197;-78
2021/12/07 04:44:28;;;;;;;1.47;1.47;;;;;;;8.93;72.87;93302.47;5089872;28;20668;-78
2021/12/07 04:47:06;;;;;;;1.70;1.60;;;;;;;8.91;72.80;93296.75;5089104;28;20296;-75
2021/12/07 04:50:19;;;;;;;1.60;1.53;;;;;;;8.89;72.69;93290.19;5089740;28;20190;-80
2021/12/07 04:58:24;;;;;;;1.50;1.50;;;;;;;8.73;72.52;93289.28;5066678;28;20201;-74
2021/12/07 05:00:52;;;;;;;1.70;1.60;;;;;;;8.76;72.55;93299.16;5066449;28;20209;-76
2021/12/07 05:03:23;;;;;;;1.70;1.60;;;;;;;8.72;72.37;93297.91;5067229;28;20263;-77
2021/12/07 05:05:52;;;;;;;1.80;1.70;;;;;;;8.45;72.19;93265.09;5067082;28;20186;-76
2021/12/07 05:08:33;;;;;;;1.70;1.60;;;;;;;8.70;72.23;93301.53;5067058;28;20222;-83
2021/12/07 05:11:24;;;;;;;2.00;1.90;;;;;;;8.65;72.25;93299.47;5066683;28;20362;-77
2021/12/07 05:13:57;;;;;;;1.70;1.53;;;;;;;8.50;72.10;93285.78;5067802;28;20186;-83
2021/12/07 05:16:45;;;;;;;2.10;2.00;;;;;;;8.60;72.03;93301.72;5071544;28;20204;-77
2021/12/07 05:23:54;;;;;;;1.80;1.70;;;;;;;8.57;71.92;93294.38;5066897;28;20199;-80
2021/12/07 05:38:37;;;;;;;3.83;3.53;;;;;;;8.31;71.78;93297.06;4986828;28;20223;-79
2021/12/07 05:41:09;;;;;;;3.80;3.50;;;;;;;8.13;71.79;93270.97;4984061;28;20292;-81
2021/12/07 05:43:36;;;;;;;4.10;3.17;;;;;;;8.28;71.90;93294.81;4984475;28;20201;-76
2021/12/07 05:46:05;;;;;;;4.00;3.47;;;;;;;8.24;71.89;93291.78;4984149;28;20205;-73
2021/12/07 05:48:32;;;;;;;4.07;3.70;;;;;;;8.24;71.88;93291.78;4984686;28;20236;-78
2021/12/07 05:51:00;;;;;;;3.80;3.50;;;;;;;8.23;71.73;93291.97;4984750;28;20215;-75
2021/12/07 05:53:27;;;;;;;4.67;3.50;;;;;;;8.20;71.85;93290.53;4968639;28;20829;-77
2021/12/07 05:55:54;;;;;;;3.10;2.90;;;;;;;8.11;71.94;93268.56;4988824;28;20193;-76
2021/12/07 05:58:22;;;;;;;2.83;2.57;;;;;;;8.16;71.88;93288.44;4985824;28;20192;-79
2021/12/07 06:00:50;;;;;;;3.43;3.13;;;;;;;8.15;72.14;93297.03;4984736;28;20201;-77
2021/12/07 06:03:17;;;;;;;2.70;2.50;;;;;;;8.15;71.87;93289.41;4984283;28;20200;-77
2021/12/07 06:05:45;;;;;;;3.40;2.90;;;;;;;7.87;71.76;93245.63;5034494;28;20210;-75
2021/12/07 06:08:11;;;;;;;3.10;2.43;;;;;;;8.11;71.93;93299.09;5056743;28;20756;-76
2021/12/07 06:10:39;;;;;;;2.80;2.60;;;;;;;8.11;71.81;93288.91;5058330;28;20191;-75
2021/12/07 06:13:06;;;;;;;2.83;2.37;;;;;;;8.11;72.18;93291.47;5044027;28;20305;-79
2021/12/07 06:15:36;;;;;;;2.23;2.10;;;;;;;8.09;72.05;93295.94;5075445;28;20201;-82
2021/12/07 06:18:05;;;;;;;3.00;2.50;;;;;;;8.09;72.03;93298.47;5087728;28;20674;-81
2021/12/07 06:20:32;;;;;;;3.90;2.93;;;;;;;8.09;72.04;93302.78;5086311;28;20186;-72
2021/12/07 06:22:59;;;;;;;2.53;2.23;;;;;;;8.08;72.06;93293.56;5093241;28;20517;-82
2021/12/07 06:25:26;;;;;;;2.70;2.50;;;;;;;8.08;71.72;93291.00;5094302;28;20225;-75
2021/12/07 06:27:53;;;;;;;3.83;2.80;;;;;;;8.08;71.91;93298.63;5087186;28;20236;-76
2021/12/07 06:30:19;;;;;;;2.60;2.40;;;;;;;7.91;71.74;93269.81;5085188;28;20673;-79
2021/12/07 06:32:47;;;;;;;3.37;2.63;;;;;;;8.07;71.89;93292.72;5086358;28;20659;-78
2021/12/07 06:35:15;;;;;;;3.37;2.57;;;;;;;8.07;71.83;93287.63;5085679;28;20233;-78
2021/12/07 06:37:41;;;;;;;2.60;2.40;;;;;;;8.08;71.84;93296.88;5086519;28;20194;-74
2021/12/07 06:40:11;;;;;;;4.20;2.50;;;;;;;8.08;71.85;93291.00;5085656;28;20212;-74
2021/12/07 06:42:39;;;;;;;3.17;2.87;;;;;;;8.09;71.78;93290.84;5087209;28;20285;-73
2021/12/07 06:45:07;;;;;;;2.77;2.40;;;;;;;8.07;71.66;93294.47;5086438;28;20208;-80
2021/12/07 06:47:34;;;;;;;3.50;2.70;;;;;;;8.06;71.83;93298.78;5085904;28;20237;-76
2021/12/07 06:50:03;;;;;;;3.13;2.73;;;;;;;8.03;71.69;93294.81;5085560;28;20614;-75
2021/12/07 06:52:30;;;;;;;2.90;2.70;;;;;;;8.04;71.73;93293.84;5087415;28;20197;-77
2021/12/07 06:54:58;;;;;;;2.60;2.40;;;;;;;8.07;71.77;93289.38;5090052;28;20201;-75
2021/12/07 06:57:25;;;;;;;2.97;2.67;;;;;;;8.07;71.87;93297.03;5089615;28;20208;-76
2021/12/07 06:59:52;;;;;;;2.40;2.20;;;;;;;8.07;71.84;93297.03;5082620;28;20204;-76
2021/12/07 07:02:19;;;;;;;2.93;2.30;;;;;;;8.10;71.55;93302.59;5077706;28;21052;-75
2021/12/07 07:04:46;;;;;;;3.27;2.93;;;;;;;8.10;71.68;93294.97;5089208;28;20202;-75
2021/12/07 07:07:16;;;;;;;2.97;2.77;;;;;;;8.12;71.59;93299.88;5089054;28;20687;-74
2021/12/07 07:09:43;;;;;;;4.27;2.70;;;;;;;8.13;71.40;93293.88;5089467;28;20217;-75
2021/12/07 07:12:10;;;;;;;2.93;2.73;;;;;;;8.12;71.43;93300.72;5089470;28;20197;-78
2021/12/07 07:14:37;;;;;;;3.57;2.30;;;;;;;8.10;71.28;93297.50;5091711;28;20250;-78
2021/12/07 07:17:04;;;;;;;2.73;2.47;;;;;;;8.12;71.20;93299.88;5090847;28;20200;-77
2021/12/07 07:19:31;;;;;;;4.13;3.17;;;;;;;7.87;71.25;93258.34;5091481;28;20201;-78
2021/12/07 07:22:01;;;;;;;3.17;2.70;;;;;;;8.07;71.37;93290.19;5094208;28;20267;-77
2021/12/07 07:24:29;;;;;;;2.93;2.50;;;;;;;8.11;71.21;93295.75;5091201;28;20604;-75
2021/12/07 07:26:56;;;;;;;4.97;3.13;;;;;;;8.11;71.10;93306.75;5091067;28;20182;-75
2021/12/07 07:29:23;;;;;;;3.00;2.67;;;;;;;8.10;71.04;93300.06;5088845;28;20216;-76
2021/12/07 07:31:49;;;;;;;3.40;3.03;;;;;;;8.09;71.12;93301.03;5090858;28;20656;-75
2021/12/07 07:34:16;;;;;;;3.77;3.17;;;;;;;8.09;71.33;93295.94;5090828;28;20190;-78
2021/12/07 07:36:43;;;;;;;4.13;2.83;;;;;;;8.08;71.17;93296.09;5090128;28;20626;-75
2021/12/07 07:39:11;;;;;;;3.00;2.80;;;;;;;8.08;71.08;93301.97;5091084;28;20197;-77
2021/12/07 07:41:40;;;;;;;3.90;3.00;;;;;;;8.05;71.01;93305.63;5088758;28;20707;-78
2021/12/07 07:44:06;;;;;;;3.57;2.57;;;;;;;8.07;70.96;93302.13;5090706;28;20205;-74
2021/12/07 07:46:33;;;;;;;3.37;2.70;;;;;;;8.08;71.06;93306.28;5090938;28;21664;-77
2021/12/07 07:49:02;;;;;;;8.67;3.57;;;;;;;8.07;70.99;93302.91;5090733;28;20221;-76
2021/12/07 07:51:29;;;;;;;2.77;2.53;;;;;;;8.04;71.07;93304.03;5087494;28;20274;-82
2021/12/07 07:53:58;;;;;;;2.63;2.43;;;;;;;8.02;71.19;93295.75;5086700;28;20197;-77
2021/12/07 07:56:25;;;;;;;2.97;2.67;;;;;;;8.04;71.13;93295.59;5089845;28;20743;-76
2021/12/07 07:58:53;;;;;;;2.63;2.47;;;;;;;8.05;71.08;93300.53;5088442;28;20194;-79
2021/12/07 08:01:20;;;;;;;2.67;2.47;;;;;;;8.04;71.09;93296.41;5088510;28;20225;-78
2021/12/07 08:03:47;;;;;;;3.23;2.70;;;;;;;8.04;71.09;93293.84;5087794;28;20627;-84
2021/12/07 08:06:13;;;;;;;3.93;2.60;;;;;;;8.05;71.06;93295.44;5088829;28;20194;-77
2021/12/07 08:08:40;;;;;;;3.10;2.80;;;;;;;7.99;70.91;93291.00;5088363;28;20677;-73
2021/12/07 08:11:07;;;;;;;2.47;2.27;;;;;;;7.59;71.12;93228.06;5088686;28;20258;-75
2021/12/07 08:13:34;;;;;;;2.50;2.30;;;;;;;7.76;70.90;93261.97;5087969;28;20194;-77
2021/12/07 08:16:02;;;;;;;3.93;2.80;;;;;;;8.06;71.39;93306.41;5087497;28;20200;-72
2021/12/07 08:18:29;;;;;;;2.87;2.20;;;;;;;8.06;70.85;93306.41;5088260;28;20676;-71
2021/12/07 08:20:56;;;;;;;2.60;2.40;;;;;;;8.12;70.79;93310.91;5087883;28;20217;-78
2021/12/07 08:23:23;;;;;;;3.83;2.73;;;;;;;8.12;70.93;93323.63;5088108;28;20194;-76
2021/12/07 08:25:50;;;;;;;2.47;2.27;;;;;;;8.16;72.19;93317.28;5088003;28;20211;-74
2021/12/07 08:28:19;;;;;;;1.67;1.57;;;;;;;9.09;100.00;93316.94;5084886;28;20719;-72
2021/12/07 08:30:47;;;;;;;2.97;2.03;;;;;;;10.23;100.00;93313.94;5087686;28;20652;-74
2021/12/07 08:33:16;;;;;;;2.60;2.17;;;;;;;11.17;100.00;93311.91;5088404;28;20221;-74
2021/12/07 08:35:43;;;;;;;4.50;2.27;;;;;;;11.98;100.00;93319.66;5087645;28;20255;-75
2021/12/07 08:38:09;;;;;;;3.27;2.40;;;;;;;12.30;100.00;93320.97;5086268;28;20194;-73
2021/12/07 08:40:39;;;;;;;4.37;2.03;;;;;;;12.30;100.00;93315.84;5088708;28;20201;-74
2021/12/07 08:43:07;;;;;;;5.13;2.60;;;;;;;12.16;100.00;93321.84;5087374;28;20186;-75
2021/12/07 08:45:34;;;;;;;2.60;2.07;;;;;;;11.96;98.21;93324.16;5087065;28;20206;-73
2021/12/07 08:48:03;;;;;;;2.77;2.30;;;;;;;11.75;93.10;93325.69;5087392;28;20236;-72
2021/12/07 08:50:33;;;;;;;2.77;2.57;;;;;;;11.51;88.11;93326.75;5088186;28;20280;-77
2021/12/07 08:53:07;;;;;;;4.90;2.50;;;;;;;11.73;100.00;93330.16;5088239;28;20201;-75
2021/12/07 09:01:06;;;;;;;2.33;2.13;;;;;;;11.58;84.90;93337.09;5086585;28;20652;-77
2021/12/07 09:03:33;;;;;;;2.70;2.50;;;;;;;11.36;80.05;93341.31;5086909;28;20208;-75
2021/12/07 09:06:01;;;;;;;2.50;2.30;;;;;;;11.15;76.21;93354.00;5087061;28;20703;-76
2021/12/07 09:08:28;;;;;;;3.33;2.50;;;;;;;10.94;74.37;93350.34;5087253;28;20307;-77
2021/12/07 09:10:56;;;;;;;2.63;2.43;;;;;;;10.74;73.18;93346.66;5087239;28;20205;-75
2021/12/07 09:13:26;;;;;;;4.77;2.40;;;;;;;10.54;71.70;93347.13;5087113;28;20236;-71
2021/12/07 09:15:54;;;;;;;4.63;2.30;;;;;;;10.35;71.47;93341.66;5087262;28;20197;-78
2021/12/07 09:18:21;;;;;;;2.40;2.20;;;;;;;10.21;71.22;93346.50;5087169;28;20201;-78
2021/12/07 09:20:48;;;;;;;2.70;2.40;;;;;;;10.07;71.25;93344.69;5087183;28;20296;-77
2021/12/07 09:23:16;;;;;;;2.70;2.50;;;;;;;9.92;71.02;93333.56;5086871;28;20197;-77
2021/12/07 09:25:43;;;;;;;3.53;2.60;;;;;;;9.77;71.14;93329.19;5086110;28;20259;-78
2021/12/07 09:28:11;;;;;;;2.80;2.40;;;;;;;9.69;71.42;93333.50;5086809;28;20216;-80
2021/12/07 09:30:39;;;;;;;3.60;2.63;;;;;;;9.59;71.66;93327.81;5087187;28;20190;-79
2021/12/07 09:33:06;;;;;;;2.83;2.63;;;;;;;9.51;71.42;93324.34;5087306;28;20201;-80
2021/12/07 09:35:35;;;;;;;2.60;2.30;;;;;;;9.45;72.00;93324.97;5086742;28;20205;-72
2021/12/07 09:38:03;;;;;;;2.47;2.27;;;;;;;9.41;72.08;93325.47;5086916;28;20190;-78
2021/12/07 09:40:32;;;;;;;3.10;2.80;;;;;;;9.28;72.12;93314.03;5087268;28;20193;-76
2021/12/07 09:42:59;;;;;;;3.37;2.70;;;;;;;9.34;72.44;93320.25;5086342;28;20197;-76
2021/12/07 09:45:30;;;;;;;2.70;2.40;;;;;;;9.32;72.50;93321.34;5089134;28;20200;-75
2021/12/07 09:47:58;;;;;;;2.27;2.07;;;;;;;8.86;81.46;93240.38;5088858;28;20190;-77
2021/12/07 09:50:26;;;;;;;2.13;1.90;;;;;;;10.08;100.00;93318.16;5089026;28;20198;-82
2021/12/07 09:52:53;;;;;;;3.50;2.40;;;;;;;10.49;100.00;93311.06;5089515;28;20667;-82
2021/12/07 09:55:21;;;;;;;3.23;2.40;;;;;;;10.68;100.00;93307.25;5086749;28;20679;-83
2021/12/07 09:57:49;;;;;;;3.60;2.43;;;;;;;10.77;93.56;93320.75;5089717;28;20267;-77
2021/12/07 10:00:19;;;;;;;4.13;2.50;;;;;;;10.80;88.97;93312.75;5089610;28;20206;-78
2021/12/07 10:02:46;;;;;;;2.70;2.50;;;;;;;10.77;85.46;93311.31;5103021;28;20228;-80
2021/12/07 10:05:14;;;;;;;2.90;2.60;;;;;;;10.77;82.63;93310.53;5098660;28;20202;-79
2021/12/07 10:07:40;;;;;;;2.60;2.40;;;;;;;10.67;79.91;93308.22;5088658;28;20212;-82
2021/12/07 10:10:19;;;;;;;3.10;2.70;;;;;;;10.68;77.98;93314.13;5087643;28;20225;-74
2021/12/07 10:12:46;;;;;;;3.23;2.83;;;;;;;10.65;76.25;93322.91;5085223;28;20203;-78
2021/12/07 10:15:15;;;;;;;3.73;2.73;;;;;;;10.60;74.92;93319.28;5086973;28;20197;-80
2021/12/07 10:17:42;;;;;;;2.50;2.30;;;;;;;10.54;73.94;93316.47;5087154;28;20586;-73
2021/12/07 10:20:37;;;;;;;3.27;2.97;;;;;;;10.47;72.71;93307.09;5086963;28;20289;-78
2021/12/07 10:23:06;;;;;;;4.20;2.63;;;;;;;10.44;72.33;93307.41;5086598;28;20185;-75
2021/12/07 10:25:33;;;;;;;4.03;2.90;;;;;;;10.36;71.68;93298.03;5086360;28;20189;-76
2021/12/07 10:28:00;;;;;;;3.00;2.70;;;;;;;10.38;71.06;93306.34;5090066;28;20181;-77
2021/12/07 10:30:29;;;;;;;3.07;2.50;;;;;;;10.36;70.95;93304.91;5091092;28;20232;-71
2021/12/07 10:33:01;;;;;;;2.90;2.60;;;;;;;10.34;70.52;93299.19;5090495;28;20296;-73
2021/12/07 10:35:30;;;;;;;2.70;2.50;;;;;;;10.35;70.41;93303.34;5090212;28;20189;-73
2021/12/07 10:38:10;;;;;;;3.33;2.70;;;;;;;10.34;70.34;93304.31;5090390;28;20603;-77
2021/12/07 10:40:54;;;;;;;2.50;2.30;;;;;;;10.34;70.16;93309.41;5090491;28;20208;-78
2021/12/07 10:43:42;;;;;;;2.33;2.17;;;;;;;10.33;69.94;93303.50;5093295;28;20205;-79
2021/12/07 10:46:34;;;;;;;2.73;2.53;;;;;;;10.34;69.61;93301.75;5090114;28;20255;-74
2021/12/07 10:49:27;;;;;;;3.17;2.90;;;;;;;10.31;69.61;93305.44;5091508;28;20221;-72
2021/12/07 10:52:05;;;;;;;3.63;2.83;;;;;;;10.29;69.15;93299.72;5091104;28;20197;-76
2021/12/07 10:54:40;;;;;;;5.77;2.93;;;;;;;10.28;69.02;93305.78;5092305;28;20182;-72
2021/12/07 10:57:08;;;;;;;3.50;3.20;;;;;;;10.26;68.99;93298.28;5090842;28;20189;-77
2021/12/07 10:59:36;;;;;;;3.50;3.20;;;;;;;10.25;68.79;93299.25;5092930;28;20209;-78
2021/12/07 11:02:16;;;;;;;3.97;2.93;;;;;;;10.24;68.61;93296.84;5092906;28;20270;-76
2021/12/07 11:04:43;;;;;;;5.43;3.23;;;;;;;10.23;68.16;93288.38;5090164;28;20551;-81
2021/12/07 11:07:19;;;;;;;5.67;3.53;;;;;;;10.23;68.21;93282.47;5092337;28;20637;-75
2021/12/07 11:09:56;;;;;;;4.50;3.13;;;;;;;10.17;67.89;93265.28;5091623;28;20220;-83
2021/12/07 11:12:25;;;;;;;4.57;3.13;;;;;;;10.08;67.71;93256.06;5095419;28;20272;-83
2021/12/07 11:14:57;;;;;;;5.23;3.33;;;;;;;10.19;67.56;93268.44;5094053;28;20201;-83
2021/12/07 11:17:27;;;;;;;5.03;3.80;;;;;;;10.19;67.47;93269.25;5090916;28;20193;-82
2021/12/07 11:19:55;;;;;;;3.30;3.10;;;;;;;10.20;67.45;93268.28;5092033;28;20201;-81
2021/12/07 11:22:25;;;;;;;3.17;2.87;;;;;;;10.20;67.43;93270.84;5093946;28;20182;-80
2021/12/07 11:24:53;;;;;;;3.67;2.93;;;;;;;10.22;67.17;93273.22;5092768;28;20232;-80
2021/12/07 11:30:09;;;;;;;3.23;2.83;;;;;;;10.17;66.75;93275.50;5097798;28;20316;-79
2021/12/07 11:32:41;;;;;;;3.17;2.70;;;;;;;10.13;66.43;93285.25;5100683;28;20198;-83
2021/12/07 11:35:13;;;;;;;3.33;2.97;;;;;;;10.11;66.33;93283.84;5096706;28;20642;-80
2021/12/07 11:37:41;;;;;;;3.47;2.83;;;;;;;10.08;66.42;93271.41;5095973;28;20201;-81
2021/12/07 11:40:10;;;;;;;2.93;2.63;;;;;;;10.08;66.34;93276.50;5096051;28;20198;-78
2021/12/07 11:42:41;;;;;;;4.03;2.80;;;;;;;10.09;66.17;93278.88;5102044;28;20675;-79
2021/12/07 11:45:11;;;;;;;3.30;3.00;;;;;;;10.08;65.94;93266.28;5099919;28;20186;-84
2021/12/07 11:47:41;;;;;;;3.10;2.60;;;;;;;10.07;65.96;93275.72;5101529;28;20197;-80
2021/12/07 11:50:29;;;;;;;3.17;2.87;;;;;;;10.07;65.77;93285.16;5098919;28;20210;-83
2021/12/07 11:52:57;;;;;;;2.80;2.50;;;;;;;10.00;65.69;93285.81;5097577;28;20201;-78
2021/12/07 11:55:26;;;;;;;2.53;2.33;;;;;;;10.00;65.62;93292.66;5097886;28;20676;-81
2021/12/07 11:57:54;;;;;;;2.37;2.23;;;;;;;9.96;65.69;93274.34;5098763;28;20212;-81
2021/12/07 12:00:24;;;;;;;2.90;2.67;;;;;;;9.93;65.55;93266.22;5098270;28;20242;-77
2021/12/07 12:02:52;;;;;;;2.70;2.47;;;;;;;9.73;65.63;93240.34;5103567;28;20193;-82
2021/12/07 12:05:20;;;;;;;3.03;2.63;;;;;;;9.88;65.37;93271.81;5101281;28;20608;-85
2021/12/07 12:07:48;;;;;;;2.60;2.40;;;;;;;9.84;65.40;93273.13;5097148;28;20197;-81
2021/12/07 12:10:20;;;;;;;2.90;2.70;;;;;;;9.28;65.51;93196.72;5099568;28;20225;-77
2021/12/07 12:13:15;;;;;;;2.73;2.53;;;;;;;9.76;65.56;93270.63;5098574;28;20193;-81
2021/12/07 12:16:13;;;;;;;3.00;2.80;;;;;;;9.71;65.39;93268.56;5091453;28;20302;-77
2021/12/07 12:18:58;;;;;;;3.13;2.83;;;;;;;9.68;65.61;93273.22;5032656;28;20187;-76
2021/12/07 12:21:33;;;;;;;3.03;2.83;;;;;;;9.64;65.49;93267.66;5033980;28;20192;-72
2021/12/07 12:24:08;;;;;;;4.27;2.97;;;;;;;9.63;65.42;93262.69;5034825;28;20222;-78
2021/12/07 12:26:36;;;;;;;3.53;3.23;;;;;;;9.60;65.58;93263.84;5032992;28;20195;-78
2021/12/07 12:29:16;;;;;;;4.90;3.37;;;;;;;9.60;65.56;93263.06;5041248;28;20220;-78
2021/12/07 12:31:46;;;;;;;3.53;3.23;;;;;;;9.55;65.77;93251.59;5033367;28;20313;-73
2021/12/07 12:34:20;;;;;;;2.77;2.57;;;;;;;9.54;65.72;93257.66;5037847;28;20200;-79
2021/12/07 12:37:03;;;;;;;3.07;2.83;;;;;;;9.51;65.73;93252.88;5036929;28;20290;-75
2021/12/07 12:39:52;;;;;;;4.43;3.00;;;;;;;9.49;65.81;93257.34;5038748;28;20368;-75
2021/12/07 12:42:26;;;;;;;3.17;2.80;;;;;;;9.47;65.99;93259.28;5031030;28;20278;-74
2021/12/07 12:44:59;;;;;;;3.10;2.80;;;;;;;9.46;65.80;93259.47;5029464;28;20198;-75
2021/12/07 12:47:28;;;;;;;2.90;2.70;;;;;;;9.44;65.78;93266.47;5035301;28;20203;-76
2021/12/07 12:49:56;;;;;;;3.30;3.00;;;;;;;9.40;66.02;93268.53;5029660;28;20274;-72
2021/12/07 12:52:42;;;;;;;4.33;2.77;;;;;;;9.38;66.22;93270.47;5031419;28;20200;-74
2021/12/07 12:55:28;;;;;;;2.80;2.60;;;;;;;9.37;66.30;93274.00;5083746;28;20193;-74
2021/12/07 12:57:55;;;;;;;4.30;2.63;;;;;;;9.35;66.57;93280.22;5099359;28;20198;-72
2021/12/07 13:00:23;;;;;;;5.00;2.70;;;;;;;9.28;66.24;93269.88;5101461;28;20799;-72
2021/12/07 13:02:51;;;;;;;4.03;2.90;;;;;;;9.22;66.34;93267.97;5108165;28;20186;-81
2021/12/07 13:05:34;;;;;;;4.97;3.33;;;;;;;9.23;66.49;93279.78;5104493;28;20208;-78
2021/12/07 13:08:13;;;;;;;3.47;3.17;;;;;;;9.22;66.57;93278.97;5104488;28;20228;-82
2021/12/07 13:10:56;;;;;;;3.57;3.27;;;;;;;9.20;66.72;93282.66;5102739;28;20243;-75